Time;durP1;ratioP1;P1;durP2;ratioP2;P2;SDS_P1;SDS_P2;PMS_P1;PMS_P2;Temp;Humidity;BMP_temperature;BMP_pressure;BME280_temperature;BME280_humidity;BME280_pressure;Samples;Min_cycle;Max_cycle;Signal;HPM_P1;HPM_P2
2022/12/26 00:01:31;;;;;;;80.03;53.65;;;;;;;;;;5068518;28;20032;-77
2022/12/26 00:03:57;;;;;;;61.55;38.38;;;;;;;;;;5066824;28;20050;-76
2022/12/26 00:06:25;;;;;;;52.65;35.38;;;;;;;;;;5068380;28;20028;-77
2022/12/26 00:08:51;;;;;;;48.10;32.63;;;;;;;;;;5062638;28;20092;-77
2022/12/26 00:11:17;;;;;;;48.63;30.77;;;;;;;;;;5067347;28;20029;-77
2022/12/26 00:13:44;;;;;;;69.68;44.15;;;;;;;;;;5049095;28;20020;-76
2022/12/26 00:16:11;;;;;;;43.78;31.45;;;;;;;;;;5067912;28;20036;-76
2022/12/26 00:18:37;;;;;;;40.97;28.75;;;;;;;;;;5048929;28;20036;-76
2022/12/26 00:21:03;;;;;;;43.53;29.10;;;;;;;;;;5067383;28;20127;-76
2022/12/26 00:23:31;;;;;;;39.53;28.17;;;;;;;;;;5067040;28;20099;-77
2022/12/26 00:26:01;;;;;;;42.47;31.13;;;;;;;;;;5059352;28;20029;-76
2022/12/26 00:28:27;;;;;;;39.45;26.77;;;;;;;;;;5062706;28;20470;-76
2022/12/26 00:30:53;;;;;;;39.72;30.15;;;;;;;;;;5048315;28;20043;-77
2022/12/26 00:33:19;;;;;;;48.45;33.97;;;;;;;;;;5058098;28;20067;-77
2022/12/26 00:35:45;;;;;;;58.40;38.38;;;;;;;;;;5067713;28;20094;-77
2022/12/26 00:38:10;;;;;;;53.42;36.33;;;;;;;;;;5062703;28;20033;-77
2022/12/26 00:40:42;;;;;;;45.55;30.25;;;;;;;;;;5060344;28;20032;-77
2022/12/26 00:43:08;;;;;;;43.70;27.92;;;;;;;;;;5065760;28;20062;-77
2022/12/26 00:45:34;;;;;;;37.10;25.77;;;;;;;;;;5066426;28;20021;-76
2022/12/26 00:48:00;;;;;;;39.90;26.30;;;;;;;;;;5066435;28;20040;-76
2022/12/26 00:50:26;;;;;;;33.45;24.48;;;;;;;;;;5063169;28;20067;-77
2022/12/26 00:52:52;;;;;;;36.72;23.98;;;;;;;;;;5067880;28;20078;-77
2022/12/26 00:55:18;;;;;;;34.42;22.50;;;;;;;;;;5066454;28;20083;-76
2022/12/26 00:57:44;;;;;;;34.60;24.52;;;;;;;;;;5063845;28;20116;-76
2022/12/26 01:00:11;;;;;;;31.95;22.25;;;;;;;;;;5063172;28;20112;-77
2022/12/26 01:02:37;;;;;;;30.42;20.05;;;;;;;;;;5060416;28;20392;-76
2022/12/26 01:05:03;;;;;;;27.10;19.48;;;;;;;;;;5066022;28;20051;-76
2022/12/26 01:07:32;;;;;;;30.05;21.38;;;;;;;;;;5062243;28;20037;-77
2022/12/26 01:09:58;;;;;;;30.40;20.50;;;;;;;;;;5065019;28;20086;-77
2022/12/26 01:12:26;;;;;;;29.20;21.75;;;;;;;;;;5065269;28;20044;-76
2022/12/26 01:14:52;;;;;;;29.45;20.85;;;;;;;;;;5066270;28;20484;-77
2022/12/26 01:17:18;;;;;;;26.52;19.70;;;;;;;;;;5065658;28;20035;-77
2022/12/26 01:19:44;;;;;;;26.42;18.40;;;;;;;;;;5066749;28;20032;-77
2022/12/26 01:22:10;;;;;;;27.88;17.15;;;;;;;;;;5065596;28;20745;-77
2022/12/26 01:24:36;;;;;;;26.48;16.15;;;;;;;;;;5065126;28;20033;-76
2022/12/26 01:27:02;;;;;;;28.85;19.70;;;;;;;;;;5063815;28;20051;-76
2022/12/26 01:29:28;;;;;;;23.17;15.98;;;;;;;;;;5062909;28;20024;-76
2022/12/26 01:31:54;;;;;;;32.50;21.60;;;;;;;;;;5065642;28;20498;-76
2022/12/26 01:34:20;;;;;;;25.73;18.52;;;;;;;;;;5046593;28;20043;-76
2022/12/26 01:36:46;;;;;;;24.17;16.25;;;;;;;;;;5066128;28;20059;-77
2022/12/26 01:39:12;;;;;;;25.50;17.13;;;;;;;;;;5066970;28;20024;-76
2022/12/26 01:41:39;;;;;;;23.25;16.00;;;;;;;;;;5048924;28;20442;-76
2022/12/26 01:44:06;;;;;;;21.42;16.20;;;;;;;;;;5063977;28;20029;-77
2022/12/26 01:46:39;;;;;;;22.35;15.20;;;;;;;;;;5062681;28;20029;-77
2022/12/26 01:49:15;;;;;;;19.38;14.57;;;;;;;;;;5065858;28;20078;-76
2022/12/26 01:51:43;;;;;;;31.58;20.30;;;;;;;;;;5061659;28;20040;-76
2022/12/26 01:54:10;;;;;;;23.75;15.88;;;;;;;;;;5063108;28;20044;-77
2022/12/26 01:56:37;;;;;;;20.58;14.20;;;;;;;;;;5066068;28;20021;-76
2022/12/26 01:59:13;;;;;;;22.77;15.45;;;;;;;;;;5065927;28;20060;-77
2022/12/26 02:01:41;;;;;;;20.42;14.13;;;;;;;;;;5045326;28;20037;-77
2022/12/26 02:06:53;;;;;;;20.20;13.45;;;;;;;;;;5063202;28;20044;-77
2022/12/26 02:09:19;;;;;;;17.40;10.82;;;;;;;;;;5063065;28;20036;-77
2022/12/26 02:11:49;;;;;;;22.77;14.88;;;;;;;;;;5066672;28;20041;-77
2022/12/26 02:14:15;;;;;;;20.45;15.05;;;;;;;;;;5056553;28;20526;-77
2022/12/26 02:16:42;;;;;;;19.15;12.68;;;;;;;;;;5050635;28;20040;-76
2022/12/26 02:19:12;;;;;;;23.00;12.27;;;;;;;;;;5060465;28;20032;-77
2022/12/26 02:21:54;;;;;;;19.08;12.18;;;;;;;;;;5044479;28;20033;-76
2022/12/26 02:24:40;;;;;;;24.63;11.70;;;;;;;;;;5063752;28;20048;-76
2022/12/26 02:27:21;;;;;;;25.73;16.58;;;;;;;;;;5065457;28;20104;-77
2022/12/26 02:30:10;;;;;;;18.35;13.18;;;;;;;;;;5046625;28;20115;-76
2022/12/26 02:32:45;;;;;;;19.60;14.45;;;;;;;;;;5011194;28;20048;-76
2022/12/26 02:35:27;;;;;;;19.33;13.15;;;;;;;;;;5062622;28;20454;-76
2022/12/26 02:38:13;;;;;;;18.13;12.33;;;;;;;;;;5045312;28;20083;-76
2022/12/26 02:40:42;;;;;;;17.80;13.30;;;;;;;;;;5059937;28;20170;-76
2022/12/26 02:43:17;;;;;;;18.80;12.23;;;;;;;;;;5056458;28;20060;-77
2022/12/26 02:48:39;;;;;;;22.00;13.38;;;;;;;;;;5063975;28;20140;-76
2022/12/26 03:14:05;;;;;;;10.38;6.60;;;;;;;;;;5062865;28;20044;-76
2022/12/26 03:19:16;;;;;;;19.23;12.00;;;;;;;;;;5063721;28;20446;-77
2022/12/26 03:21:44;;;;;;;23.08;13.70;;;;;;;;;;5068365;28;20135;-77
2022/12/26 03:24:11;;;;;;;14.45;8.65;;;;;;;;;;5061781;28;20026;-76
2022/12/26 03:26:40;;;;;;;17.48;10.00;;;;;;;;;;5068244;28;20063;-76
2022/12/26 03:31:55;;;;;;;18.15;11.68;;;;;;;;;;5060424;28;20103;-76
2022/12/26 03:34:22;;;;;;;20.92;11.80;;;;;;;;;;5067693;28;20074;-76
2022/12/26 03:36:51;;;;;;;20.60;12.57;;;;;;;;;;5063294;28;20025;-77
2022/12/26 04:44:32;;;;;;;10.95;5.97;;;;;;;;;;4984625;28;20049;-76
2022/12/26 04:46:58;;;;;;;11.10;5.93;;;;;;;;;;5023542;28;20030;-76
2022/12/26 04:52:09;;;;;;;10.18;5.22;;;;;;;;;;5024259;28;20080;-77
2022/12/26 04:54:35;;;;;;;10.80;5.35;;;;;;;;;;5032345;28;20045;-76
2022/12/26 04:57:01;;;;;;;11.65;6.40;;;;;;;;;;5034653;28;20036;-76
2022/12/26 04:59:27;;;;;;;13.45;6.45;;;;;;;;;;5046204;28;20040;-77
2022/12/26 05:10:15;;;;;;;14.10;8.25;;;;;;;;;;5036891;28;20134;-76
2022/12/26 05:12:40;;;;;;;10.37;6.70;;;;;;;;;;5039608;28;20033;-77
2022/12/26 05:15:07;;;;;;;13.70;7.35;;;;;;;;;;5042607;28;20035;-76
2022/12/26 05:28:42;;;;;;;10.75;6.22;;;;;;;;;;5038405;28;20048;-76
2022/12/26 05:31:12;;;;;;;10.63;6.53;;;;;;;;;;5042236;28;20120;-76
2022/12/26 05:36:24;;;;;;;10.48;6.53;;;;;;;;;;5028346;28;20064;-76
2022/12/26 05:38:50;;;;;;;12.52;8.25;;;;;;;;;;5045389;28;22058;-76
2022/12/26 05:41:17;;;;;;;12.93;6.97;;;;;;;;;;5046911;28;20075;-76
2022/12/26 05:43:43;;;;;;;13.45;6.80;;;;;;;;;;5042095;28;20476;-76
2022/12/26 05:46:09;;;;;;;9.93;5.97;;;;;;;;;;5044613;28;20136;-76
2022/12/26 05:48:35;;;;;;;10.52;6.55;;;;;;;;;;5046117;28;20029;-76
2022/12/26 05:51:01;;;;;;;10.98;6.82;;;;;;;;;;5041025;28;20047;-76
2022/12/26 05:53:28;;;;;;;14.88;7.30;;;;;;;;;;5041065;28;20025;-76
2022/12/26 05:55:54;;;;;;;11.60;7.28;;;;;;;;;;5062684;28;20106;-77
2022/12/26 05:58:20;;;;;;;11.40;7.47;;;;;;;;;;5060447;28;20072;-76
2022/12/26 06:00:46;;;;;;;12.20;7.25;;;;;;;;;;5063829;28;20040;-76
2022/12/26 06:03:12;;;;;;;12.20;8.07;;;;;;;;;;5063800;28;20032;-77
2022/12/26 06:05:38;;;;;;;13.50;8.20;;;;;;;;;;5060062;28;20070;-77
2022/12/26 06:08:05;;;;;;;12.95;7.78;;;;;;;;;;5054080;28;20037;-76
2022/12/26 06:10:31;;;;;;;15.52;7.45;;;;;;;;;;5066232;28;20060;-76
2022/12/26 06:12:57;;;;;;;11.95;7.78;;;;;;;;;;5060433;28;20439;-76
2022/12/26 06:15:23;;;;;;;15.35;8.85;;;;;;;;;;5059773;28;20079;-77
2022/12/26 06:17:49;;;;;;;18.33;10.25;;;;;;;;;;5043999;28;20033;-77
2022/12/26 06:20:15;;;;;;;16.88;8.55;;;;;;;;;;5057171;28;20075;-76
2022/12/26 06:22:41;;;;;;;14.98;9.73;;;;;;;;;;5058284;28;20032;-76
2022/12/26 06:25:07;;;;;;;17.08;9.60;;;;;;;;;;5065154;28;20031;-76
2022/12/26 06:27:33;;;;;;;18.90;11.43;;;;;;;;;;5064159;28;20478;-76
2022/12/26 06:29:59;;;;;;;26.67;16.05;;;;;;;;;;5064641;28;20043;-77
2022/12/26 06:32:25;;;;;;;16.88;9.60;;;;;;;;;;5063672;28;20040;-76
2022/12/26 06:34:51;;;;;;;20.83;11.05;;;;;;;;;;5063561;28;20098;-76
2022/12/26 06:37:17;;;;;;;23.80;12.57;;;;;;;;;;5066784;28;20807;-76
2022/12/26 06:39:43;;;;;;;26.13;14.50;;;;;;;;;;5070229;28;20043;-77
2022/12/26 06:42:09;;;;;;;26.40;13.55;;;;;;;;;;5065869;28;20544;-76
2022/12/26 06:44:35;;;;;;;23.80;11.57;;;;;;;;;;5066780;28;20028;-76
2022/12/26 06:47:02;;;;;;;19.83;11.73;;;;;;;;;;5064501;28;20407;-76
2022/12/26 06:49:28;;;;;;;19.38;11.75;;;;;;;;;;5068281;28;20020;-76
2022/12/26 06:51:54;;;;;;;19.40;11.98;;;;;;;;;;5067997;28;20040;-76
2022/12/26 06:54:20;;;;;;;18.38;11.30;;;;;;;;;;5059353;28;20060;-76
2022/12/26 06:56:46;;;;;;;22.35;11.80;;;;;;;;;;5068702;28;20833;-76
2022/12/26 06:59:12;;;;;;;21.33;12.95;;;;;;;;;;5065493;28;20044;-76
2022/12/26 07:01:38;;;;;;;24.05;15.57;;;;;;;;;;5049659;28;20029;-76
2022/12/26 07:04:05;;;;;;;20.25;14.05;;;;;;;;;;5048764;28;20044;-77
2022/12/26 07:06:31;;;;;;;18.55;11.63;;;;;;;;;;5064568;28;20035;-76
2022/12/26 07:09:01;;;;;;;18.02;11.88;;;;;;;;;;5066378;28;20025;-76
2022/12/26 07:11:28;;;;;;;17.83;11.55;;;;;;;;;;5068819;28;20032;-76
2022/12/26 07:13:55;;;;;;;20.48;12.63;;;;;;;;;;5065890;28;20032;-76
2022/12/26 07:16:21;;;;;;;23.70;15.68;;;;;;;;;;5063138;28;20068;-76
2022/12/26 07:18:47;;;;;;;20.33;11.88;;;;;;;;;;5063741;28;20131;-76
2022/12/26 07:21:14;;;;;;;22.50;12.43;;;;;;;;;;5067708;28;20546;-76
2022/12/26 07:23:40;;;;;;;24.58;16.42;;;;;;;;;;5068204;28;20036;-76
2022/12/26 07:26:06;;;;;;;20.83;13.35;;;;;;;;;;5065069;28;20041;-77
2022/12/26 07:28:32;;;;;;;33.15;20.95;;;;;;;;;;5068337;28;20510;-76
2022/12/26 07:30:59;;;;;;;23.05;15.82;;;;;;;;;;5067841;28;20036;-77
2022/12/26 07:33:26;;;;;;;23.00;12.70;;;;;;;;;;5061566;28;20075;-76
2022/12/26 07:35:52;;;;;;;21.25;12.88;;;;;;;;;;5068040;28;20032;-76
2022/12/26 07:38:18;;;;;;;22.58;14.90;;;;;;;;;;5067029;28;20058;-76
2022/12/26 07:40:44;;;;;;;14.18;6.90;;;;;;;;;;5063310;28;20792;-77
2022/12/26 07:43:10;;;;;;;12.73;6.60;;;;;;;;;;5048852;28;20534;-76
2022/12/26 07:45:36;;;;;;;23.15;14.60;;;;;;;;;;5064238;28;20731;-76
2022/12/26 07:48:02;;;;;;;27.77;17.45;;;;;;;;;;5061742;28;20036;-76
2022/12/26 07:50:28;;;;;;;24.25;14.98;;;;;;;;;;5066158;28;20033;-76
2022/12/26 07:52:54;;;;;;;15.82;10.70;;;;;;;;;;5066415;28;20135;-76
2022/12/26 07:55:21;;;;;;;19.02;9.80;;;;;;;;;;5067227;28;20120;-76
2022/12/26 07:57:50;;;;;;;22.20;11.85;;;;;;;;;;5065952;28;20468;-76
2022/12/26 08:00:18;;;;;;;14.52;8.23;;;;;;;;;;5066979;28;20041;-76
2022/12/26 08:02:43;;;;;;;13.45;8.57;;;;;;;;;;5066377;28;20070;-76
2022/12/26 08:05:09;;;;;;;15.23;8.02;;;;;;;;;;5067560;28;20032;-76
2022/12/26 08:07:35;;;;;;;7.88;4.55;;;;;;;;;;5061283;28;20040;-76
2022/12/26 08:10:01;;;;;;;9.48;6.50;;;;;;;;;;5067230;28;20078;-76
2022/12/26 08:12:27;;;;;;;7.65;4.05;;;;;;;;;;5062287;28;20059;-77
2022/12/26 08:14:53;;;;;;;7.38;3.60;;;;;;;;;;5065100;28;20478;-75
2022/12/26 08:17:19;;;;;;;20.20;12.15;;;;;;;;;;5064205;28;20076;-76
2022/12/26 08:19:45;;;;;;;17.65;11.00;;;;;;;;;;5064317;28;20040;-76
2022/12/26 08:22:11;;;;;;;21.77;12.48;;;;;;;;;;5061592;28;20048;-76
2022/12/26 08:24:37;;;;;;;26.30;14.95;;;;;;;;;;5060149;28;20020;-76
2022/12/26 08:27:03;;;;;;;38.13;22.90;;;;;;;;;;5065283;28;20060;-76
2022/12/26 08:29:29;;;;;;;12.73;7.28;;;;;;;;;;5059434;28;20028;-76
2022/12/26 08:31:55;;;;;;;5.80;2.97;;;;;;;;;;5064352;28;20402;-76
2022/12/26 08:34:21;;;;;;;7.75;3.00;;;;;;;;;;5065106;28;20033;-76
2022/12/26 08:36:50;;;;;;;7.18;3.58;;;;;;;;;;5067599;28;20046;-76
2022/12/26 08:39:16;;;;;;;9.68;4.88;;;;;;;;;;5062640;28;20020;-76
2022/12/26 08:41:42;;;;;;;10.45;5.88;;;;;;;;;;5066816;28;20024;-76
2022/12/26 08:44:09;;;;;;;16.17;10.27;;;;;;;;;;5058713;28;20033;-76
2022/12/26 08:46:35;;;;;;;17.65;12.05;;;;;;;;;;5064135;28;20115;-76
2022/12/26 08:49:01;;;;;;;15.85;9.98;;;;;;;;;;5062132;28;20474;-76
2022/12/26 08:51:27;;;;;;;14.73;9.80;;;;;;;;;;5065374;28;20516;-75
2022/12/26 08:53:54;;;;;;;19.63;11.63;;;;;;;;;;5062484;28;20059;-77
2022/12/26 08:56:21;;;;;;;13.27;7.75;;;;;;;;;;5046393;28;20067;-76
2022/12/26 08:58:47;;;;;;;9.07;5.00;;;;;;;;;;5061564;28;20028;-76
2022/12/26 09:01:18;;;;;;;7.20;3.58;;;;;;;;;;5063149;28;20093;-76
2022/12/26 09:03:44;;;;;;;9.63;5.68;;;;;;;;;;5058962;28;20525;-76
2022/12/26 09:06:12;;;;;;;12.35;7.90;;;;;;;;;;5061940;28;20066;-76
2022/12/26 09:08:38;;;;;;;12.77;8.15;;;;;;;;;;5062560;28;20058;-76
2022/12/26 09:11:12;;;;;;;18.15;8.48;;;;;;;;;;5061031;28;20040;-76
2022/12/26 09:13:38;;;;;;;9.60;6.80;;;;;;;;;;5062188;28;20040;-76
2022/12/26 09:16:05;;;;;;;12.27;7.43;;;;;;;;;;5064004;28;20482;-76
2022/12/26 09:18:31;;;;;;;14.40;7.95;;;;;;;;;;5065186;28;20029;-76
2022/12/26 09:21:01;;;;;;;13.18;7.55;;;;;;;;;;5061672;28;20037;-76
2022/12/26 09:23:27;;;;;;;12.18;7.10;;;;;;;;;;5058899;28;20031;-76
2022/12/26 09:25:53;;;;;;;11.63;7.70;;;;;;;;;;5060658;28;20028;-76
2022/12/26 09:28:19;;;;;;;9.82;6.40;;;;;;;;;;5045215;28;20028;-76
2022/12/26 09:30:45;;;;;;;12.32;6.55;;;;;;;;;;5066270;28;20768;-76
2022/12/26 09:33:11;;;;;;;13.63;7.75;;;;;;;;;;5045738;28;20032;-76
2022/12/26 09:35:41;;;;;;;16.33;9.18;;;;;;;;;;5058871;28;20037;-76
2022/12/26 09:38:07;;;;;;;24.10;13.63;;;;;;;;;;5060341;28;20032;-76
2022/12/26 09:40:39;;;;;;;13.98;8.55;;;;;;;;;;5062183;28;20074;-76
2022/12/26 09:43:44;;;;;;;13.73;7.95;;;;;;;;;;5060661;28;20041;-76
2022/12/26 09:46:16;;;;;;;9.43;5.35;;;;;;;;;;4963987;28;20043;-76
2022/12/26 09:48:48;;;;;;;11.50;7.75;;;;;;;;;;4962509;28;20521;-77
2022/12/26 09:51:14;;;;;;;18.77;13.13;;;;;;;;;;5021293;28;20078;-76
2022/12/26 09:53:42;;;;;;;23.35;13.25;;;;;;;;;;5064543;28;20410;-76
2022/12/26 09:56:12;;;;;;;22.75;11.60;;;;;;;;;;5064672;28;20439;-77
2022/12/26 09:58:47;;;;;;;8.38;4.50;;;;;;;;;;5061318;28;20039;-76
2022/12/26 10:01:15;;;;;;;10.00;4.90;;;;;;;;;;5064909;28;20040;-76
2022/12/26 10:03:46;;;;;;;8.40;3.90;;;;;;;;;;5049961;28;20081;-76
2022/12/26 10:06:15;;;;;;;18.63;11.77;;;;;;;;;;5069029;28;20486;-76
2022/12/26 10:08:53;;;;;;;28.60;19.73;;;;;;;;;;5068074;28;20074;-76
2022/12/26 10:11:39;;;;;;;20.70;14.60;;;;;;;;;;5068067;28;20036;-76
2022/12/26 10:14:08;;;;;;;18.73;13.65;;;;;;;;;;5036756;28;20044;-75
2022/12/26 10:16:34;;;;;;;35.17;18.73;;;;;;;;;;5040268;28;20852;-76
2022/12/26 10:19:00;;;;;;;18.88;11.10;;;;;;;;;;5045330;28;20139;-76
2022/12/26 10:21:45;;;;;;;18.33;11.50;;;;;;;;;;5068483;28;20454;-76
2022/12/26 10:24:11;;;;;;;19.75;12.88;;;;;;;;;;5062394;28;20031;-76
2022/12/26 10:26:39;;;;;;;14.60;8.80;;;;;;;;;;5051344;28;20449;-76
2022/12/26 10:29:08;;;;;;;15.18;9.35;;;;;;;;;;5060091;28;20032;-76
2022/12/26 10:31:40;;;;;;;15.35;10.02;;;;;;;;;;5065287;28;20054;-76
2022/12/26 10:34:06;;;;;;;;;;;;;;;;;;5068268;28;20605;-76
2022/12/26 10:36:34;;;;;;;13.50;7.40;;;;;;;;;;5066751;28;20023;-76
2022/12/26 10:39:01;;;;;;;15.48;9.48;;;;;;;;;;5067695;28;20739;-77
2022/12/26 10:41:33;;;;;;;20.08;10.85;;;;;;;;;;5066501;28;20033;-76
2022/12/26 10:43:59;;;;;;;21.15;7.93;;;;;;;;;;5067345;28;20033;-76
2022/12/26 10:46:31;;;;;;;26.17;14.05;;;;;;;;;;5066457;28;20033;-76
2022/12/26 10:48:57;;;;;;;24.73;13.20;;;;;;;;;;5068432;28;20111;-76
2022/12/26 10:51:24;;;;;;;25.85;14.05;;;;;;;;;;5063749;28;20027;-76
2022/12/26 10:53:51;;;;;;;21.77;13.50;;;;;;;;;;5068728;28;20033;-76
2022/12/26 10:56:17;;;;;;;16.85;11.00;;;;;;;;;;5045365;28;20040;-77
2022/12/26 10:58:44;;;;;;;16.15;13.00;;;;;;;;;;5067331;28;20032;-76
2022/12/26 11:01:28;;;;;;;22.55;14.80;;;;;;;;;;5068208;28;20391;-76
2022/12/26 11:03:55;;;;;;;18.55;13.20;;;;;;;;;;5064639;28;20043;-77
2022/12/26 11:06:23;;;;;;;19.48;13.50;;;;;;;;;;5067442;28;20550;-77
2022/12/26 11:08:50;;;;;;;22.23;14.57;;;;;;;;;;5069378;28;20155;-76
2022/12/26 11:11:44;;;;;;;19.98;13.73;;;;;;;;;;5066476;28;20490;-76
2022/12/26 11:14:22;;;;;;;19.23;12.65;;;;;;;;;;5063471;28;20120;-76
2022/12/26 11:16:49;;;;;;;21.20;10.88;;;;;;;;;;5062788;28;20047;-76
2022/12/26 11:19:35;;;;;;;20.33;10.73;;;;;;;;;;5064832;28;20042;-76
2022/12/26 11:22:27;;;;;;;16.05;10.35;;;;;;;;;;5065548;28;20044;-76
2022/12/26 11:25:12;;;;;;;22.58;14.20;;;;;;;;;;5063268;28;20519;-76
2022/12/26 11:27:39;;;;;;;24.40;17.75;;;;;;;;;;5058033;28;20102;-76
2022/12/26 11:30:20;;;;;;;21.42;15.20;;;;;;;;;;5062684;28;20033;-76
2022/12/26 11:32:48;;;;;;;18.25;12.85;;;;;;;;;;5043587;28;20044;-76
2022/12/26 11:35:18;;;;;;;19.00;10.63;;;;;;;;;;5068105;28;20032;-76
2022/12/26 11:37:45;;;;;;;15.02;8.82;;;;;;;;;;5061070;28;20047;-76
2022/12/26 11:40:19;;;;;;;18.15;9.63;;;;;;;;;;5066164;28;20028;-76
2022/12/26 11:42:49;;;;;;;17.48;11.35;;;;;;;;;;5065069;28;20053;-76
2022/12/26 11:45:19;;;;;;;13.68;8.52;;;;;;;;;;5065721;28;20036;-76
2022/12/26 11:47:46;;;;;;;15.27;9.52;;;;;;;;;;5064248;28;20067;-76
2022/12/26 11:50:20;;;;;;;13.45;9.20;;;;;;;;;;5059993;28;20028;-76
2022/12/26 11:52:55;;;;;;;18.00;10.25;;;;;;;;;;5061552;28;20041;-77
2022/12/26 11:55:35;;;;;;;13.55;9.77;;;;;;;;;;5066449;28;20051;-76
2022/12/26 11:58:08;;;;;;;16.02;9.63;;;;;;;;;;5065355;28;20044;-76
2022/12/26 12:00:34;;;;;;;18.02;11.88;;;;;;;;;;5047990;28;20029;-76
2022/12/26 12:03:00;;;;;;;16.75;11.98;;;;;;;;;;5065981;28;20743;-76
2022/12/26 12:05:29;;;;;;;19.33;12.50;;;;;;;;;;5067388;28;20086;-76
2022/12/26 12:07:55;;;;;;;14.20;9.50;;;;;;;;;;5059517;28;20043;-76
2022/12/26 12:10:41;;;;;;;13.85;9.55;;;;;;;;;;5065377;28;20031;-76
2022/12/26 12:13:13;;;;;;;11.73;8.68;;;;;;;;;;5066487;28;20063;-76
2022/12/26 12:15:58;;;;;;;13.40;9.70;;;;;;;;;;5064763;28;20573;-76
2022/12/26 12:18:48;;;;;;;20.15;11.63;;;;;;;;;;5041259;28;20164;-76
2022/12/26 12:21:14;;;;;;;15.55;10.02;;;;;;;;;;5053860;28;20510;-76
2022/12/26 12:23:51;;;;;;;14.00;8.98;;;;;;;;;;5064840;28;20028;-76
2022/12/26 12:26:23;;;;;;;14.95;10.25;;;;;;;;;;5063385;28;20058;-76
2022/12/26 12:29:04;;;;;;;16.98;9.32;;;;;;;;;;5047694;28;20035;-76
2022/12/26 12:31:30;;;;;;;12.93;8.43;;;;;;;;;;5042090;28;20036;-76
2022/12/26 12:34:04;;;;;;;10.82;7.57;;;;;;;;;;5065884;28;20040;-76
2022/12/26 12:36:36;;;;;;;13.38;8.73;;;;;;;;;;5060475;28;20040;-76
2022/12/26 12:39:30;;;;;;;12.27;8.25;;;;;;;;;;5061569;28;20028;-76
2022/12/26 12:42:03;;;;;;;13.10;7.85;;;;;;;;;;5046319;28;20771;-76
2022/12/26 12:44:49;;;;;;;15.43;9.20;;;;;;;;;;5064492;28;20071;-75
2022/12/26 12:47:30;;;;;;;13.45;10.05;;;;;;;;;;5004485;28;20079;-76
2022/12/26 12:50:20;;;;;;;12.90;8.77;;;;;;;;;;5059634;28;20043;-77
2022/12/26 12:52:47;;;;;;;15.82;8.77;;;;;;;;;;5052506;28;20286;-76
2022/12/26 12:55:25;;;;;;;21.75;12.25;;;;;;;;;;5061773;28;20048;-76
2022/12/26 12:57:54;;;;;;;18.05;11.10;;;;;;;;;;5041038;28;20424;-76
2022/12/26 13:00:22;;;;;;;17.40;9.70;;;;;;;;;;5065077;28;20043;-76
2022/12/26 13:02:54;;;;;;;15.20;8.10;;;;;;;;;;5060390;28;20029;-77
2022/12/26 13:05:20;;;;;;;12.40;8.15;;;;;;;;;;5062921;28;20028;-76
2022/12/26 13:07:50;;;;;;;11.10;7.57;;;;;;;;;;5044246;28;20144;-76
2022/12/26 13:10:19;;;;;;;11.43;6.75;;;;;;;;;;5062895;28;20156;-76
2022/12/26 13:12:45;;;;;;;9.55;6.13;;;;;;;;;;5062190;28;20032;-76
2022/12/26 13:15:17;;;;;;;14.43;8.73;;;;;;;;;;5064522;28;20082;-76
2022/12/26 13:17:53;;;;;;;16.02;10.00;;;;;;;;;;5060946;28;20688;-76
2022/12/26 13:20:25;;;;;;;18.10;10.45;;;;;;;;;;5061382;28;20032;-76
2022/12/26 13:25:41;;;;;;;19.20;10.30;;;;;;;;;;5060973;28;20545;-76
2022/12/26 13:28:13;;;;;;;19.88;14.20;;;;;;;;;;5063099;28;20669;-76
2022/12/26 13:30:39;;;;;;;22.75;17.33;;;;;;;;;;5064094;28;20028;-76
2022/12/26 13:33:05;;;;;;;18.88;13.52;;;;;;;;;;5063763;28;20070;-76
2022/12/26 13:35:51;;;;;;;19.05;11.65;;;;;;;;;;5059093;28;20051;-76
2022/12/26 13:38:17;;;;;;;16.25;11.00;;;;;;;;;;5062974;28;20075;-76
2022/12/26 13:40:47;;;;;;;18.67;12.48;;;;;;;;;;5044120;28;20033;-76
2022/12/26 13:46:27;;;;;;;25.95;15.63;;;;;;;;;;5065013;28;20043;-76
2022/12/26 13:48:55;;;;;;;28.23;17.33;;;;;;;;;;5060966;28;20040;-76
2022/12/26 13:51:39;;;;;;;30.63;18.90;;;;;;;;;;5064381;28;20036;-76
2022/12/26 13:54:09;;;;;;;26.95;15.45;;;;;;;;;;5061636;28;20055;-76
2022/12/26 13:56:41;;;;;;;19.23;13.80;;;;;;;;;;5060169;28;20032;-76
2022/12/26 13:59:07;;;;;;;16.27;11.60;;;;;;;;;;5058715;28;20032;-76
2022/12/26 14:01:42;;;;;;;23.50;14.57;;;;;;;;;;5040471;28;20090;-76
2022/12/26 14:04:14;;;;;;;20.48;13.30;;;;;;;;;;5060493;28;20112;-76
2022/12/26 14:06:59;;;;;;;23.65;14.73;;;;;;;;;;5063177;28;20047;-76
2022/12/26 14:09:44;;;;;;;27.08;15.38;;;;;;;;;;5060475;28;20197;-76
2022/12/26 14:12:10;;;;;;;23.17;15.95;;;;;;;;;;5057501;28;20036;-76
2022/12/26 14:14:54;;;;;;;23.80;14.98;;;;;;;;;;5064736;28;20120;-76
2022/12/26 14:17:29;;;;;;;21.00;14.48;;;;;;;;;;5061981;28;20031;-76
2022/12/26 14:19:55;;;;;;;24.08;14.02;;;;;;;;;;5064036;28;20043;-76
2022/12/26 14:22:25;;;;;;;20.42;14.80;;;;;;;;;;5041637;28;20029;-76
2022/12/26 14:25:09;;;;;;;28.98;16.33;;;;;;;;;;5062914;28;20360;-76
2022/12/26 14:27:53;;;;;;;26.77;13.55;;;;;;;;;;5057957;28;20060;-76
2022/12/26 14:30:28;;;;;;;24.17;16.30;;;;;;;;;;5055725;28;20040;-76
2022/12/26 14:32:57;;;;;;;24.17;15.32;;;;;;;;;;5059591;28;20055;-76
2022/12/26 14:35:29;;;;;;;28.67;17.77;;;;;;;;;;5044985;28;20395;-76
2022/12/26 14:38:03;;;;;;;38.65;25.60;;;;;;;;;;5063152;28;20060;-76
2022/12/26 14:40:35;;;;;;;33.15;21.30;;;;;;;;;;5062676;28;20032;-76
2022/12/26 14:43:16;;;;;;;29.83;20.67;;;;;;;;;;5065248;28;20025;-76
2022/12/26 14:45:42;;;;;;;36.28;24.83;;;;;;;;;;5063082;28;20352;-76
2022/12/26 14:48:14;;;;;;;34.35;21.02;;;;;;;;;;5064521;28;20694;-76
2022/12/26 14:50:42;;;;;;;31.75;19.77;;;;;;;;;;5064589;28;20025;-76
2022/12/26 14:53:27;;;;;;;33.05;18.35;;;;;;;;;;5064921;28;20063;-76
2022/12/26 14:55:54;;;;;;;40.72;21.80;;;;;;;;;;5063342;28;20044;-76
2022/12/26 14:58:25;;;;;;;34.03;20.27;;;;;;;;;;5048491;28;20036;-76
2022/12/26 15:00:51;;;;;;;24.55;17.23;;;;;;;;;;5066871;28;20056;-76
2022/12/26 15:03:36;;;;;;;32.08;18.02;;;;;;;;;;5067846;28;20032;-76
2022/12/26 15:06:22;;;;;;;26.92;16.77;;;;;;;;;;5063948;28;20048;-76
2022/12/26 15:08:57;;;;;;;28.20;17.60;;;;;;;;;;5035552;28;20037;-76
2022/12/26 15:11:32;;;;;;;25.25;16.27;;;;;;;;;;5060938;28;20041;-76
2022/12/26 15:14:01;;;;;;;25.92;16.23;;;;;;;;;;5065611;28;20064;-76
2022/12/26 15:16:36;;;;;;;24.52;16.00;;;;;;;;;;5064632;28;20123;-76
2022/12/26 15:19:21;;;;;;;32.80;18.25;;;;;;;;;;5065872;28;20762;-76
2022/12/26 15:21:57;;;;;;;35.47;19.52;;;;;;;;;;5061932;28;20043;-76
2022/12/26 15:24:47;;;;;;;38.55;23.30;;;;;;;;;;5065978;28;20082;-76
2022/12/26 15:27:16;;;;;;;34.35;27.60;;;;;;;;;;5047670;28;20110;-77
2022/12/26 15:29:51;;;;;;;40.05;29.73;;;;;;;;;;5068476;28;20031;-76
2022/12/26 15:32:22;;;;;;;40.47;31.13;;;;;;;;;;5062395;28;20033;-77
2022/12/26 15:35:06;;;;;;;33.20;21.52;;;;;;;;;;5050558;28;20029;-76
2022/12/26 15:37:50;;;;;;;28.00;21.85;;;;;;;;;;5065086;28;20440;-76
2022/12/26 15:40:24;;;;;;;29.50;19.30;;;;;;;;;;5048017;28;20486;-76
2022/12/26 15:42:53;;;;;;;26.73;19.00;;;;;;;;;;5063046;28;20028;-76
2022/12/26 15:45:22;;;;;;;30.85;20.15;;;;;;;;;;5048850;28;20053;-76
2022/12/26 15:48:01;;;;;;;31.77;22.77;;;;;;;;;;5048333;28;20037;-76
2022/12/26 15:50:35;;;;;;;34.30;25.20;;;;;;;;;;5065146;28;20285;-76
2022/12/26 15:53:08;;;;;;;30.50;24.05;;;;;;;;;;5062302;28;20032;-76
2022/12/26 15:55:53;;;;;;;33.17;23.58;;;;;;;;;;5066861;28;20062;-76
2022/12/26 15:58:19;;;;;;;33.90;23.27;;;;;;;;;;5064934;28;20107;-76
2022/12/26 16:00:52;;;;;;;31.88;22.85;;;;;;;;;;5046105;28;20037;-76
2022/12/26 16:03:35;;;;;;;34.13;22.55;;;;;;;;;;5063779;28;20094;-76
2022/12/26 16:06:20;;;;;;;43.28;24.88;;;;;;;;;;5064791;28;20146;-76
2022/12/26 16:09:04;;;;;;;34.40;23.58;;;;;;;;;;5065986;28;20036;-76
2022/12/26 16:11:31;;;;;;;50.63;31.65;;;;;;;;;;5064451;28;20047;-76
2022/12/26 16:13:57;;;;;;;35.80;26.45;;;;;;;;;;5065805;28;20055;-76
2022/12/26 16:16:34;;;;;;;40.60;26.73;;;;;;;;;;5066910;28;20033;-76
2022/12/26 16:19:21;;;;;;;34.60;23.55;;;;;;;;;;5062109;28;20037;-76
2022/12/26 16:24:35;;;;;;;31.17;20.83;;;;;;;;;;5064848;28;20074;-76
2022/12/26 16:27:03;;;;;;;29.50;21.50;;;;;;;;;;5048312;28;20664;-76
2022/12/26 16:29:30;;;;;;;38.35;26.13;;;;;;;;;;5066345;28;20427;-76
2022/12/26 16:32:04;;;;;;;35.20;24.10;;;;;;;;;;5046758;28;20044;-76
2022/12/26 16:34:32;;;;;;;33.08;22.42;;;;;;;;;;5063886;28;20032;-76
2022/12/26 16:36:58;;;;;;;37.65;25.05;;;;;;;;;;5064485;28;20064;-76
2022/12/26 16:39:24;;;;;;;31.88;21.08;;;;;;;;;;5061426;28;20075;-76
2022/12/26 16:41:58;;;;;;;32.60;20.75;;;;;;;;;;5067394;28;20136;-76
2022/12/26 16:44:27;;;;;;;35.67;22.25;;;;;;;;;;5066597;28;20086;-76
2022/12/26 16:46:53;;;;;;;30.55;21.23;;;;;;;;;;5065894;28;20043;-76
2022/12/26 16:49:21;;;;;;;34.00;23.50;;;;;;;;;;5066567;28;20032;-76
2022/12/26 16:51:49;;;;;;;36.90;24.80;;;;;;;;;;5064744;28;20036;-76